Terminal Aerodrome Forecast
Issued by NWS

Home | Current Version | Previous Version | Text Only | Print | Product List | Glossary On
Versions: 1 2 3 4 5 6 7 8 9 10 11 12 13 14 15 16 17 18 19 20 21 22 23 24 25 26 27 28 29 30 31 32 33 34 35 36 37 38 39 40 41 42 43 44 45 46 47 48 49 50
000
FTUS41 KCTP 250055 AAA
TAFLNS
TAF AMD
KLNS 250055Z 2501/2524 16007KT P6SM FEW250
     FM250500 16006KT P6SM BKN015
     FM250800 16006KT 5SM BR SCT007 OVC012
     FM251400 17012G22KT 6SM BR SCT007 OVC012
      TEMPO 2519/2521 26015G25KT 2SM -TSRA OVC012CB
     FM252100 29012G24KT P6SM BKN045=

USA.gov is the U.S. government's official web portal to all federal, state and local government web resources and services.